sensor_id;sensor_type;location;lat;lon;timestamp;P1;durP1;ratioP1;P2;durP2;ratioP2
52180;SDS011;38158;53.338;6.514;2022-07-17T00:00:38;5.97;;;1.90;;
52180;SDS011;38158;53.338;6.514;2022-07-17T00:03:14;10.98;;;2.05;;
52180;SDS011;38158;53.338;6.514;2022-07-17T00:05:41;10.50;;;1.90;;
52180;SDS011;38158;53.338;6.514;2022-07-17T00:08:07;6.18;;;1.92;;
52180;SDS011;38158;53.338;6.514;2022-07-17T00:10:34;6.38;;;1.73;;
52180;SDS011;38158;53.338;6.514;2022-07-17T00:13:04;16.23;;;2.65;;
52180;SDS011;38158;53.338;6.514;2022-07-17T00:15:30;12.15;;;2.35;;
52180;SDS011;38158;53.338;6.514;2022-07-17T00:17:56;7.70;;;1.95;;
52180;SDS011;38158;53.338;6.514;2022-07-17T00:20:22;9.23;;;2.03;;
52180;SDS011;38158;53.338;6.514;2022-07-17T00:22:50;8.20;;;2.08;;
52180;SDS011;38158;53.338;6.514;2022-07-17T00:25:23;8.50;;;2.30;;
52180;SDS011;38158;53.338;6.514;2022-07-17T00:27:49;7.00;;;2.17;;
52180;SDS011;38158;53.338;6.514;2022-07-17T00:30:17;11.15;;;2.90;;
52180;SDS011;38158;53.338;6.514;2022-07-17T00:32:44;5.75;;;2.00;;
52180;SDS011;38158;53.338;6.514;2022-07-17T00:35:10;7.18;;;2.28;;
52180;SDS011;38158;53.338;6.514;2022-07-17T00:37:40;5.75;;;1.90;;
52180;SDS011;38158;53.338;6.514;2022-07-17T00:40:07;7.85;;;2.30;;
52180;SDS011;38158;53.338;6.514;2022-07-17T00:42:33;7.15;;;2.05;;
52180;SDS011;38158;53.338;6.514;2022-07-17T00:44:59;10.45;;;2.05;;
52180;SDS011;38158;53.338;6.514;2022-07-17T00:47:25;7.70;;;2.40;;
52180;SDS011;38158;53.338;6.514;2022-07-17T00:49:51;9.27;;;2.60;;
52180;SDS011;38158;53.338;6.514;2022-07-17T00:52:17;7.38;;;2.15;;
52180;SDS011;38158;53.338;6.514;2022-07-17T00:54:44;7.43;;;1.80;;
52180;SDS011;38158;53.338;6.514;2022-07-17T00:57:12;7.82;;;2.75;;
52180;SDS011;38158;53.338;6.514;2022-07-17T00:59:39;8.50;;;2.83;;
52180;SDS011;38158;53.338;6.514;2022-07-17T01:02:06;8.68;;;2.58;;
52180;SDS011;38158;53.338;6.514;2022-07-17T01:04:34;9.70;;;2.22;;
52180;SDS011;38158;53.338;6.514;2022-07-17T01:07:02;7.50;;;2.40;;
52180;SDS011;38158;53.338;6.514;2022-07-17T01:09:30;5.80;;;2.10;;
52180;SDS011;38158;53.338;6.514;2022-07-17T01:11:57;7.75;;;2.17;;
52180;SDS011;38158;53.338;6.514;2022-07-17T01:14:23;4.95;;;2.03;;
52180;SDS011;38158;53.338;6.514;2022-07-17T01:16:50;5.55;;;2.40;;
52180;SDS011;38158;53.338;6.514;2022-07-17T01:19:17;5.90;;;2.40;;
52180;SDS011;38158;53.338;6.514;2022-07-17T01:21:45;7.03;;;2.35;;
52180;SDS011;38158;53.338;6.514;2022-07-17T01:24:12;5.28;;;2.33;;
52180;SDS011;38158;53.338;6.514;2022-07-17T01:26:45;8.35;;;2.65;;
52180;SDS011;38158;53.338;6.514;2022-07-17T01:29:12;7.72;;;2.60;;
52180;SDS011;38158;53.338;6.514;2022-07-17T01:34:06;9.25;;;2.50;;
52180;SDS011;38158;53.338;6.514;2022-07-17T01:38:58;7.90;;;2.65;;
52180;SDS011;38158;53.338;6.514;2022-07-17T01:41:24;9.00;;;2.90;;
52180;SDS011;38158;53.338;6.514;2022-07-17T01:43:50;6.50;;;2.22;;
52180;SDS011;38158;53.338;6.514;2022-07-17T01:46:16;13.98;;;2.88;;
52180;SDS011;38158;53.338;6.514;2022-07-17T01:48:41;7.43;;;2.72;;
52180;SDS011;38158;53.338;6.514;2022-07-17T01:51:07;12.07;;;3.35;;
52180;SDS011;38158;53.338;6.514;2022-07-17T01:53:33;10.73;;;2.97;;
52180;SDS011;38158;53.338;6.514;2022-07-17T01:55:59;13.40;;;3.58;;
52180;SDS011;38158;53.338;6.514;2022-07-17T01:58:24;9.93;;;3.47;;
52180;SDS011;38158;53.338;6.514;2022-07-17T02:00:50;19.33;;;3.88;;
52180;SDS011;38158;53.338;6.514;2022-07-17T02:03:17;17.80;;;3.20;;
52180;SDS011;38158;53.338;6.514;2022-07-17T02:05:43;16.02;;;3.28;;
52180;SDS011;38158;53.338;6.514;2022-07-17T02:08:09;10.32;;;2.58;;
52180;SDS011;38158;53.338;6.514;2022-07-17T02:10:34;13.48;;;3.33;;
52180;SDS011;38158;53.338;6.514;2022-07-17T02:13:00;8.30;;;2.60;;
52180;SDS011;38158;53.338;6.514;2022-07-17T02:15:26;7.88;;;2.30;;
52180;SDS011;38158;53.338;6.514;2022-07-17T02:17:52;11.07;;;2.78;;
52180;SDS011;38158;53.338;6.514;2022-07-17T02:20:18;6.10;;;2.60;;
52180;SDS011;38158;53.338;6.514;2022-07-17T02:22:44;8.30;;;2.85;;
52180;SDS011;38158;53.338;6.514;2022-07-17T02:25:10;8.18;;;2.45;;
52180;SDS011;38158;53.338;6.514;2022-07-17T02:27:37;10.27;;;2.47;;
52180;SDS011;38158;53.338;6.514;2022-07-17T02:30:07;7.70;;;2.80;;
52180;SDS011;38158;53.338;6.514;2022-07-17T02:32:43;9.95;;;2.80;;
52180;SDS011;38158;53.338;6.514;2022-07-17T02:35:10;7.70;;;2.88;;
52180;SDS011;38158;53.338;6.514;2022-07-17T02:37:37;6.45;;;2.28;;
52180;SDS011;38158;53.338;6.514;2022-07-17T02:40:04;8.63;;;2.47;;
52180;SDS011;38158;53.338;6.514;2022-07-17T02:42:30;8.80;;;3.10;;
52180;SDS011;38158;53.338;6.514;2022-07-17T02:44:57;7.93;;;2.53;;
52180;SDS011;38158;53.338;6.514;2022-07-17T02:47:24;6.40;;;2.53;;
52180;SDS011;38158;53.338;6.514;2022-07-17T02:49:55;5.97;;;2.58;;
52180;SDS011;38158;53.338;6.514;2022-07-17T02:52:21;8.07;;;3.00;;
52180;SDS011;38158;53.338;6.514;2022-07-17T02:54:47;8.15;;;3.15;;
52180;SDS011;38158;53.338;6.514;2022-07-17T02:57:13;7.60;;;3.22;;
52180;SDS011;38158;53.338;6.514;2022-07-17T02:59:39;8.55;;;3.30;;
52180;SDS011;38158;53.338;6.514;2022-07-17T03:02:05;6.75;;;3.22;;
52180;SDS011;38158;53.338;6.514;2022-07-17T03:04:31;11.07;;;3.35;;
52180;SDS011;38158;53.338;6.514;2022-07-17T03:06:56;9.57;;;3.38;;
52180;SDS011;38158;53.338;6.514;2022-07-17T03:09:22;8.70;;;3.80;;
52180;SDS011;38158;53.338;6.514;2022-07-17T03:11:48;11.40;;;3.90;;
52180;SDS011;38158;53.338;6.514;2022-07-17T03:14:14;8.75;;;3.67;;
52180;SDS011;38158;53.338;6.514;2022-07-17T03:16:40;10.20;;;3.83;;
52180;SDS011;38158;53.338;6.514;2022-07-17T03:19:05;7.70;;;4.18;;
52180;SDS011;38158;53.338;6.514;2022-07-17T03:21:31;10.18;;;3.88;;
52180;SDS011;38158;53.338;6.514;2022-07-17T03:23:57;10.75;;;3.35;;
52180;SDS011;38158;53.338;6.514;2022-07-17T03:26:22;10.18;;;3.72;;
52180;SDS011;38158;53.338;6.514;2022-07-17T03:28:48;6.55;;;2.83;;
52180;SDS011;38158;53.338;6.514;2022-07-17T03:31:14;5.13;;;2.83;;
52180;SDS011;38158;53.338;6.514;2022-07-17T03:33:39;7.35;;;3.30;;
52180;SDS011;38158;53.338;6.514;2022-07-17T03:36:05;9.95;;;3.20;;
52180;SDS011;38158;53.338;6.514;2022-07-17T03:38:31;10.27;;;3.50;;
52180;SDS011;38158;53.338;6.514;2022-07-17T03:40:58;10.65;;;3.90;;
52180;SDS011;38158;53.338;6.514;2022-07-17T03:43:23;9.45;;;3.70;;
52180;SDS011;38158;53.338;6.514;2022-07-17T03:45:49;7.00;;;3.40;;
52180;SDS011;38158;53.338;6.514;2022-07-17T03:48:15;8.85;;;3.28;;
52180;SDS011;38158;53.338;6.514;2022-07-17T03:50:41;5.93;;;3.20;;
52180;SDS011;38158;53.338;6.514;2022-07-17T03:53:06;11.23;;;3.20;;
52180;SDS011;38158;53.338;6.514;2022-07-17T03:55:32;7.50;;;3.55;;
52180;SDS011;38158;53.338;6.514;2022-07-17T03:57:58;9.68;;;3.72;;
52180;SDS011;38158;53.338;6.514;2022-07-17T04:00:24;11.13;;;3.90;;
52180;SDS011;38158;53.338;6.514;2022-07-17T04:02:50;10.07;;;3.60;;
52180;SDS011;38158;53.338;6.514;2022-07-17T04:05:15;10.18;;;3.45;;
52180;SDS011;38158;53.338;6.514;2022-07-17T04:07:41;10.77;;;3.28;;
52180;SDS011;38158;53.338;6.514;2022-07-17T04:10:09;8.60;;;2.83;;
52180;SDS011;38158;53.338;6.514;2022-07-17T04:12:36;11.80;;;3.80;;
52180;SDS011;38158;53.338;6.514;2022-07-17T04:15:03;7.82;;;3.35;;
52180;SDS011;38158;53.338;6.514;2022-07-17T04:17:29;9.02;;;3.30;;
52180;SDS011;38158;53.338;6.514;2022-07-17T04:19:55;11.57;;;4.38;;
52180;SDS011;38158;53.338;6.514;2022-07-17T04:22:21;12.05;;;3.15;;
52180;SDS011;38158;53.338;6.514;2022-07-17T04:24:46;9.70;;;3.22;;
52180;SDS011;38158;53.338;6.514;2022-07-17T04:27:12;6.75;;;3.20;;
52180;SDS011;38158;53.338;6.514;2022-07-17T04:29:38;8.68;;;2.83;;
52180;SDS011;38158;53.338;6.514;2022-07-17T04:32:04;6.20;;;2.95;;
52180;SDS011;38158;53.338;6.514;2022-07-17T04:34:30;8.63;;;3.00;;
52180;SDS011;38158;53.338;6.514;2022-07-17T04:36:58;14.82;;;3.70;;
52180;SDS011;38158;53.338;6.514;2022-07-17T04:39:25;7.18;;;3.13;;
52180;SDS011;38158;53.338;6.514;2022-07-17T04:41:50;7.60;;;3.45;;
52180;SDS011;38158;53.338;6.514;2022-07-17T04:44:17;7.05;;;3.25;;
52180;SDS011;38158;53.338;6.514;2022-07-17T04:46:43;7.30;;;3.50;;
52180;SDS011;38158;53.338;6.514;2022-07-17T04:49:08;8.85;;;3.33;;
52180;SDS011;38158;53.338;6.514;2022-07-17T04:51:34;9.93;;;3.50;;
52180;SDS011;38158;53.338;6.514;2022-07-17T04:54:00;10.50;;;3.17;;
52180;SDS011;38158;53.338;6.514;2022-07-17T04:56:26;10.85;;;3.53;;
52180;SDS011;38158;53.338;6.514;2022-07-17T04:58:52;5.78;;;2.63;;
52180;SDS011;38158;53.338;6.514;2022-07-17T05:01:17;9.10;;;3.40;;
52180;SDS011;38158;53.338;6.514;2022-07-17T05:03:43;8.05;;;3.22;;
52180;SDS011;38158;53.338;6.514;2022-07-17T05:06:09;7.70;;;3.00;;
52180;SDS011;38158;53.338;6.514;2022-07-17T05:08:35;7.60;;;2.97;;
52180;SDS011;38158;53.338;6.514;2022-07-17T05:11:01;9.55;;;2.67;;
52180;SDS011;38158;53.338;6.514;2022-07-17T05:13:26;10.95;;;3.40;;
52180;SDS011;38158;53.338;6.514;2022-07-17T05:15:52;7.03;;;2.97;;
52180;SDS011;38158;53.338;6.514;2022-07-17T05:18:18;8.18;;;2.92;;
52180;SDS011;38158;53.338;6.514;2022-07-17T05:20:43;9.05;;;3.00;;
52180;SDS011;38158;53.338;6.514;2022-07-17T05:23:09;13.93;;;3.63;;
52180;SDS011;38158;53.338;6.514;2022-07-17T05:25:35;5.82;;;2.50;;
52180;SDS011;38158;53.338;6.514;2022-07-17T05:28:01;11.82;;;3.13;;
52180;SDS011;38158;53.338;6.514;2022-07-17T05:30:27;10.40;;;3.00;;
52180;SDS011;38158;53.338;6.514;2022-07-17T05:32:53;7.47;;;2.60;;
52180;SDS011;38158;53.338;6.514;2022-07-17T05:35:19;8.55;;;2.83;;
52180;SDS011;38158;53.338;6.514;2022-07-17T05:37:44;7.32;;;2.83;;
52180;SDS011;38158;53.338;6.514;2022-07-17T05:40:10;10.73;;;4.20;;
52180;SDS011;38158;53.338;6.514;2022-07-17T05:42:36;12.13;;;2.85;;
52180;SDS011;38158;53.338;6.514;2022-07-17T05:45:02;9.90;;;2.80;;
52180;SDS011;38158;53.338;6.514;2022-07-17T05:47:28;9.80;;;3.13;;
52180;SDS011;38158;53.338;6.514;2022-07-17T05:49:54;14.15;;;3.33;;
52180;SDS011;38158;53.338;6.514;2022-07-17T05:52:19;6.22;;;2.38;;
52180;SDS011;38158;53.338;6.514;2022-07-17T05:54:45;8.02;;;2.38;;
52180;SDS011;38158;53.338;6.514;2022-07-17T05:57:11;9.57;;;2.85;;
52180;SDS011;38158;53.338;6.514;2022-07-17T05:59:37;7.85;;;2.53;;
52180;SDS011;38158;53.338;6.514;2022-07-17T06:02:02;7.75;;;2.30;;
52180;SDS011;38158;53.338;6.514;2022-07-17T06:04:28;9.60;;;2.50;;
52180;SDS011;38158;53.338;6.514;2022-07-17T06:06:54;8.70;;;2.05;;
52180;SDS011;38158;53.338;6.514;2022-07-17T06:09:19;5.75;;;2.67;;
52180;SDS011;38158;53.338;6.514;2022-07-17T06:11:45;7.28;;;2.40;;
52180;SDS011;38158;53.338;6.514;2022-07-17T06:14:11;6.63;;;2.45;;
52180;SDS011;38158;53.338;6.514;2022-07-17T06:16:36;7.65;;;2.83;;
52180;SDS011;38158;53.338;6.514;2022-07-17T06:19:02;17.92;;;3.45;;
52180;SDS011;38158;53.338;6.514;2022-07-17T06:21:28;9.70;;;2.90;;
52180;SDS011;38158;53.338;6.514;2022-07-17T06:23:53;9.65;;;2.30;;
52180;SDS011;38158;53.338;6.514;2022-07-17T06:26:19;8.55;;;2.55;;
52180;SDS011;38158;53.338;6.514;2022-07-17T06:28:44;7.63;;;1.90;;
52180;SDS011;38158;53.338;6.514;2022-07-17T06:31:11;5.22;;;1.77;;
52180;SDS011;38158;53.338;6.514;2022-07-17T06:33:36;7.40;;;2.38;;
52180;SDS011;38158;53.338;6.514;2022-07-17T06:36:03;7.30;;;2.13;;
52180;SDS011;38158;53.338;6.514;2022-07-17T06:38:29;4.78;;;2.13;;
52180;SDS011;38158;53.338;6.514;2022-07-17T06:40:55;6.90;;;2.08;;
52180;SDS011;38158;53.338;6.514;2022-07-17T06:43:20;9.02;;;1.83;;
52180;SDS011;38158;53.338;6.514;2022-07-17T06:45:47;10.93;;;1.77;;
52180;SDS011;38158;53.338;6.514;2022-07-17T06:48:13;8.48;;;2.15;;
52180;SDS011;38158;53.338;6.514;2022-07-17T06:50:39;9.48;;;2.13;;
52180;SDS011;38158;53.338;6.514;2022-07-17T06:53:06;6.35;;;2.20;;
52180;SDS011;38158;53.338;6.514;2022-07-17T06:55:31;9.82;;;1.98;;
52180;SDS011;38158;53.338;6.514;2022-07-17T06:57:57;5.35;;;1.85;;
52180;SDS011;38158;53.338;6.514;2022-07-17T07:00:23;5.93;;;1.23;;
52180;SDS011;38158;53.338;6.514;2022-07-17T07:02:48;8.50;;;1.50;;
52180;SDS011;38158;53.338;6.514;2022-07-17T07:05:14;6.78;;;1.65;;
52180;SDS011;38158;53.338;6.514;2022-07-17T07:07:40;6.57;;;1.40;;
52180;SDS011;38158;53.338;6.514;2022-07-17T07:10:06;12.07;;;1.45;;
52180;SDS011;38158;53.338;6.514;2022-07-17T07:12:32;11.18;;;1.45;;
52180;SDS011;38158;53.338;6.514;2022-07-17T07:14:58;8.80;;;1.60;;
52180;SDS011;38158;53.338;6.514;2022-07-17T07:17:24;5.68;;;1.50;;
52180;SDS011;38158;53.338;6.514;2022-07-17T07:19:50;10.00;;;1.27;;
52180;SDS011;38158;53.338;6.514;2022-07-17T07:22:15;5.63;;;1.63;;
52180;SDS011;38158;53.338;6.514;2022-07-17T07:24:41;4.95;;;1.95;;
52180;SDS011;38158;53.338;6.514;2022-07-17T07:27:07;6.50;;;1.20;;
52180;SDS011;38158;53.338;6.514;2022-07-17T07:29:33;7.35;;;1.33;;
52180;SDS011;38158;53.338;6.514;2022-07-17T07:31:58;5.10;;;1.13;;
52180;SDS011;38158;53.338;6.514;2022-07-17T07:34:25;9.77;;;1.88;;
52180;SDS011;38158;53.338;6.514;2022-07-17T07:36:51;13.00;;;3.03;;
52180;SDS011;38158;53.338;6.514;2022-07-17T07:39:17;4.68;;;1.15;;
52180;SDS011;38158;53.338;6.514;2022-07-17T07:41:42;5.85;;;0.82;;
52180;SDS011;38158;53.338;6.514;2022-07-17T07:44:08;4.00;;;0.90;;
52180;SDS011;38158;53.338;6.514;2022-07-17T07:46:34;5.38;;;1.33;;
52180;SDS011;38158;53.338;6.514;2022-07-17T07:48:59;6.68;;;1.33;;
52180;SDS011;38158;53.338;6.514;2022-07-17T07:51:25;9.07;;;1.23;;
52180;SDS011;38158;53.338;6.514;2022-07-17T07:53:51;8.13;;;1.15;;
52180;SDS011;38158;53.338;6.514;2022-07-17T07:56:16;7.65;;;0.95;;
52180;SDS011;38158;53.338;6.514;2022-07-17T07:58:42;7.13;;;1.10;;
52180;SDS011;38158;53.338;6.514;2022-07-17T08:01:08;7.45;;;1.00;;
52180;SDS011;38158;53.338;6.514;2022-07-17T08:03:34;5.45;;;1.23;;
52180;SDS011;38158;53.338;6.514;2022-07-17T08:05:59;8.15;;;1.77;;
52180;SDS011;38158;53.338;6.514;2022-07-17T08:08:25;4.07;;;1.20;;
52180;SDS011;38158;53.338;6.514;2022-07-17T08:10:51;5.57;;;1.33;;
52180;SDS011;38158;53.338;6.514;2022-07-17T08:13:17;7.22;;;1.23;;
52180;SDS011;38158;53.338;6.514;2022-07-17T08:15:43;5.32;;;1.13;;
52180;SDS011;38158;53.338;6.514;2022-07-17T08:18:08;6.45;;;1.50;;
52180;SDS011;38158;53.338;6.514;2022-07-17T08:20:34;7.63;;;0.93;;
52180;SDS011;38158;53.338;6.514;2022-07-17T08:23:00;4.88;;;0.90;;
52180;SDS011;38158;53.338;6.514;2022-07-17T08:25:26;5.03;;;1.10;;
52180;SDS011;38158;53.338;6.514;2022-07-17T08:27:51;5.97;;;1.00;;
52180;SDS011;38158;53.338;6.514;2022-07-17T08:30:17;6.05;;;0.90;;
52180;SDS011;38158;53.338;6.514;2022-07-17T08:32:43;7.35;;;1.38;;
52180;SDS011;38158;53.338;6.514;2022-07-17T08:35:10;6.85;;;1.30;;
52180;SDS011;38158;53.338;6.514;2022-07-17T08:40:17;3.97;;;0.90;;
52180;SDS011;38158;53.338;6.514;2022-07-17T08:42:57;6.28;;;0.98;;
52180;SDS011;38158;53.338;6.514;2022-07-17T08:45:24;7.20;;;1.05;;
52180;SDS011;38158;53.338;6.514;2022-07-17T08:47:50;8.40;;;1.35;;
52180;SDS011;38158;53.338;6.514;2022-07-17T08:52:45;6.15;;;1.17;;
52180;SDS011;38158;53.338;6.514;2022-07-17T08:55:12;5.32;;;0.93;;
52180;SDS011;38158;53.338;6.514;2022-07-17T08:57:39;6.63;;;0.98;;
52180;SDS011;38158;53.338;6.514;2022-07-17T09:00:07;5.45;;;1.20;;
52180;SDS011;38158;53.338;6.514;2022-07-17T09:02:39;6.40;;;0.73;;
52180;SDS011;38158;53.338;6.514;2022-07-17T09:05:05;6.28;;;0.93;;
52180;SDS011;38158;53.338;6.514;2022-07-17T09:09:58;6.30;;;0.77;;
52180;SDS011;38158;53.338;6.514;2022-07-17T09:12:27;8.57;;;1.08;;
52180;SDS011;38158;53.338;6.514;2022-07-17T09:14:54;3.90;;;1.02;;
52180;SDS011;38158;53.338;6.514;2022-07-17T09:17:20;3.67;;;0.70;;
52180;SDS011;38158;53.338;6.514;2022-07-17T09:19:47;6.82;;;0.80;;
52180;SDS011;38158;53.338;6.514;2022-07-17T09:22:18;5.75;;;1.20;;
52180;SDS011;38158;53.338;6.514;2022-07-17T09:24:50;5.85;;;1.17;;
52180;SDS011;38158;53.338;6.514;2022-07-17T09:32:27;6.82;;;1.05;;
52180;SDS011;38158;53.338;6.514;2022-07-17T09:34:56;8.05;;;1.20;;
52180;SDS011;38158;53.338;6.514;2022-07-17T09:37:23;3.10;;;0.68;;
52180;SDS011;38158;53.338;6.514;2022-07-17T09:39:51;5.10;;;0.93;;
52180;SDS011;38158;53.338;6.514;2022-07-17T09:42:37;5.80;;;0.98;;
52180;SDS011;38158;53.338;6.514;2022-07-17T09:47:33;6.80;;;1.10;;
52180;SDS011;38158;53.338;6.514;2022-07-17T09:50:00;5.28;;;0.80;;
52180;SDS011;38158;53.338;6.514;2022-07-17T09:52:29;5.38;;;1.08;;
52180;SDS011;38158;53.338;6.514;2022-07-17T09:54:56;6.88;;;1.13;;
52180;SDS011;38158;53.338;6.514;2022-07-17T09:57:28;6.32;;;0.80;;
52180;SDS011;38158;53.338;6.514;2022-07-17T09:59:59;3.53;;;0.85;;
52180;SDS011;38158;53.338;6.514;2022-07-17T10:02:28;3.35;;;0.93;;
52180;SDS011;38158;53.338;6.514;2022-07-17T10:04:54;3.65;;;1.00;;
52180;SDS011;38158;53.338;6.514;2022-07-17T10:07:20;4.18;;;0.75;;
52180;SDS011;38158;53.338;6.514;2022-07-17T10:09:46;3.97;;;1.00;;
52180;SDS011;38158;53.338;6.514;2022-07-17T10:12:13;2.08;;;0.60;;
52180;SDS011;38158;53.338;6.514;2022-07-17T10:14:39;7.03;;;1.50;;
52180;SDS011;38158;53.338;6.514;2022-07-17T10:17:12;2.42;;;0.75;;
52180;SDS011;38158;53.338;6.514;2022-07-17T10:19:55;5.68;;;1.00;;
52180;SDS011;38158;53.338;6.514;2022-07-17T10:22:22;7.18;;;1.10;;
52180;SDS011;38158;53.338;6.514;2022-07-17T10:32:30;3.80;;;0.88;;
52180;SDS011;38158;53.338;6.514;2022-07-17T10:37:32;5.95;;;0.98;;
52180;SDS011;38158;53.338;6.514;2022-07-17T10:48:00;3.25;;;0.73;;
52180;SDS011;38158;53.338;6.514;2022-07-17T10:50:53;5.35;;;0.88;;
52180;SDS011;38158;53.338;6.514;2022-07-17T10:53:24;5.82;;;1.02;;
52180;SDS011;38158;53.338;6.514;2022-07-17T10:55:59;2.88;;;0.70;;
52180;SDS011;38158;53.338;6.514;2022-07-17T11:06:21;3.45;;;1.02;;
52180;SDS011;38158;53.338;6.514;2022-07-17T11:11:16;3.67;;;0.90;;
52180;SDS011;38158;53.338;6.514;2022-07-17T11:13:43;3.33;;;0.52;;
52180;SDS011;38158;53.338;6.514;2022-07-17T11:16:09;4.85;;;1.17;;
52180;SDS011;38158;53.338;6.514;2022-07-17T11:18:35;4.25;;;0.80;;
52180;SDS011;38158;53.338;6.514;2022-07-17T11:21:04;4.25;;;0.90;;
52180;SDS011;38158;53.338;6.514;2022-07-17T11:23:30;4.60;;;0.95;;
52180;SDS011;38158;53.338;6.514;2022-07-17T11:26:05;3.63;;;0.70;;
52180;SDS011;38158;53.338;6.514;2022-07-17T11:30:59;6.38;;;1.58;;
52180;SDS011;38158;53.338;6.514;2022-07-17T11:33:26;2.75;;;0.90;;
52180;SDS011;38158;53.338;6.514;2022-07-17T11:35:52;4.63;;;0.90;;
52180;SDS011;38158;53.338;6.514;2022-07-17T11:40:52;3.17;;;0.93;;
52180;SDS011;38158;53.338;6.514;2022-07-17T11:43:18;4.78;;;1.05;;
52180;SDS011;38158;53.338;6.514;2022-07-17T11:45:44;3.53;;;0.70;;
52180;SDS011;38158;53.338;6.514;2022-07-17T11:48:10;4.00;;;0.88;;
52180;SDS011;38158;53.338;6.514;2022-07-17T11:50:36;5.63;;;0.95;;
52180;SDS011;38158;53.338;6.514;2022-07-17T11:53:03;2.85;;;1.00;;
52180;SDS011;38158;53.338;6.514;2022-07-17T11:58:02;3.53;;;1.00;;
52180;SDS011;38158;53.338;6.514;2022-07-17T12:00:28;3.78;;;1.42;;
52180;SDS011;38158;53.338;6.514;2022-07-17T12:03:04;2.53;;;1.03;;
52180;SDS011;38158;53.338;6.514;2022-07-17T12:05:32;1.80;;;0.88;;
52180;SDS011;38158;53.338;6.514;2022-07-17T12:08:00;2.20;;;0.98;;
52180;SDS011;38158;53.338;6.514;2022-07-17T12:10:27;4.85;;;0.93;;
52180;SDS011;38158;53.338;6.514;2022-07-17T12:12:58;4.43;;;1.45;;
52180;SDS011;38158;53.338;6.514;2022-07-17T12:15:44;5.57;;;1.30;;
52180;SDS011;38158;53.338;6.514;2022-07-17T12:20:52;4.40;;;1.50;;
52180;SDS011;38158;53.338;6.514;2022-07-17T12:30:58;4.63;;;1.63;;
52180;SDS011;38158;53.338;6.514;2022-07-17T12:33:24;4.47;;;1.20;;
52180;SDS011;38158;53.338;6.514;2022-07-17T12:35:49;4.13;;;1.70;;
52180;SDS011;38158;53.338;6.514;2022-07-17T12:38:15;5.45;;;1.65;;
52180;SDS011;38158;53.338;6.514;2022-07-17T12:40:41;4.17;;;1.60;;
52180;SDS011;38158;53.338;6.514;2022-07-17T12:43:07;4.30;;;1.52;;
52180;SDS011;38158;53.338;6.514;2022-07-17T12:45:34;4.10;;;1.40;;
52180;SDS011;38158;53.338;6.514;2022-07-17T12:48:00;4.80;;;1.63;;
52180;SDS011;38158;53.338;6.514;2022-07-17T12:50:26;4.43;;;1.50;;
52180;SDS011;38158;53.338;6.514;2022-07-17T12:52:51;5.67;;;1.87;;
52180;SDS011;38158;53.338;6.514;2022-07-17T12:55:17;6.68;;;1.73;;
52180;SDS011;38158;53.338;6.514;2022-07-17T12:57:43;8.10;;;1.90;;
52180;SDS011;38158;53.338;6.514;2022-07-17T13:00:09;3.83;;;1.90;;
52180;SDS011;38158;53.338;6.514;2022-07-17T13:05:01;6.90;;;5.10;;
52180;SDS011;38158;53.338;6.514;2022-07-17T13:07:27;5.47;;;2.00;;
52180;SDS011;38158;53.338;6.514;2022-07-17T13:09:53;4.73;;;1.80;;
52180;SDS011;38158;53.338;6.514;2022-07-17T13:12:18;4.17;;;1.47;;
52180;SDS011;38158;53.338;6.514;2022-07-17T13:14:44;3.03;;;1.50;;
52180;SDS011;38158;53.338;6.514;2022-07-17T13:17:10;4.77;;;1.80;;
52180;SDS011;38158;53.338;6.514;2022-07-17T13:19:35;4.47;;;1.47;;
52180;SDS011;38158;53.338;6.514;2022-07-17T13:22:01;4.13;;;1.87;;
52180;SDS011;38158;53.338;6.514;2022-07-17T13:24:28;4.78;;;1.98;;
52180;SDS011;38158;53.338;6.514;2022-07-17T13:26:55;5.60;;;1.85;;
52180;SDS011;38158;53.338;6.514;2022-07-17T13:29:21;4.40;;;2.17;;
52180;SDS011;38158;53.338;6.514;2022-07-17T13:31:47;8.63;;;1.83;;
52180;SDS011;38158;53.338;6.514;2022-07-17T13:34:12;6.23;;;1.80;;
52180;SDS011;38158;53.338;6.514;2022-07-17T13:36:38;3.83;;;1.63;;
52180;SDS011;38158;53.338;6.514;2022-07-17T13:39:04;5.97;;;2.30;;
52180;SDS011;38158;53.338;6.514;2022-07-17T13:41:30;4.47;;;1.92;;
52180;SDS011;38158;53.338;6.514;2022-07-17T13:43:56;4.80;;;1.80;;
52180;SDS011;38158;53.338;6.514;2022-07-17T13:46:22;5.22;;;2.38;;
52180;SDS011;38158;53.338;6.514;2022-07-17T13:48:48;4.73;;;1.80;;
52180;SDS011;38158;53.338;6.514;2022-07-17T13:51:13;6.00;;;2.60;;
52180;SDS011;38158;53.338;6.514;2022-07-17T13:53:39;6.35;;;2.40;;
52180;SDS011;38158;53.338;6.514;2022-07-17T13:56:07;3.95;;;1.95;;
52180;SDS011;38158;53.338;6.514;2022-07-17T13:58:33;5.27;;;1.90;;
52180;SDS011;38158;53.338;6.514;2022-07-17T14:00:59;5.73;;;2.20;;
52180;SDS011;38158;53.338;6.514;2022-07-17T14:03:24;4.20;;;2.00;;
52180;SDS011;38158;53.338;6.514;2022-07-17T14:05:50;5.13;;;2.20;;
52180;SDS011;38158;53.338;6.514;2022-07-17T14:08:16;4.37;;;2.27;;
52180;SDS011;38158;53.338;6.514;2022-07-17T14:10:42;3.97;;;2.10;;
52180;SDS011;38158;53.338;6.514;2022-07-17T14:13:08;4.35;;;1.73;;
52180;SDS011;38158;53.338;6.514;2022-07-17T14:15:34;5.20;;;2.10;;
52180;SDS011;38158;53.338;6.514;2022-07-17T14:18:00;5.43;;;2.47;;
52180;SDS011;38158;53.338;6.514;2022-07-17T14:20:27;5.32;;;2.17;;
52180;SDS011;38158;53.338;6.514;2022-07-17T14:22:52;4.83;;;2.60;;
52180;SDS011;38158;53.338;6.514;2022-07-17T14:25:18;5.00;;;2.30;;
52180;SDS011;38158;53.338;6.514;2022-07-17T14:27:44;4.03;;;2.27;;
52180;SDS011;38158;53.338;6.514;2022-07-17T14:30:10;4.50;;;1.97;;
52180;SDS011;38158;53.338;6.514;2022-07-17T14:32:36;6.77;;;2.30;;
52180;SDS011;38158;53.338;6.514;2022-07-17T14:35:02;5.40;;;2.37;;
52180;SDS011;38158;53.338;6.514;2022-07-17T14:37:29;6.47;;;2.33;;
52180;SDS011;38158;53.338;6.514;2022-07-17T14:39:54;6.37;;;1.93;;
52180;SDS011;38158;53.338;6.514;2022-07-17T14:42:20;4.80;;;2.03;;
52180;SDS011;38158;53.338;6.514;2022-07-17T14:44:46;6.33;;;2.10;;
52180;SDS011;38158;53.338;6.514;2022-07-17T14:47:12;8.07;;;2.00;;
52180;SDS011;38158;53.338;6.514;2022-07-17T14:49:38;5.47;;;2.50;;
52180;SDS011;38158;53.338;6.514;2022-07-17T14:52:03;4.00;;;2.17;;
52180;SDS011;38158;53.338;6.514;2022-07-17T14:54:29;15.13;;;2.20;;
52180;SDS011;38158;53.338;6.514;2022-07-17T14:56:56;4.30;;;2.03;;
52180;SDS011;38158;53.338;6.514;2022-07-17T14:59:23;5.97;;;2.20;;
52180;SDS011;38158;53.338;6.514;2022-07-17T15:01:49;11.10;;;5.68;;
52180;SDS011;38158;53.338;6.514;2022-07-17T15:04:15;4.40;;;2.17;;
52180;SDS011;38158;53.338;6.514;2022-07-17T15:06:40;8.53;;;2.70;;
52180;SDS011;38158;53.338;6.514;2022-07-17T15:09:07;5.43;;;2.20;;
52180;SDS011;38158;53.338;6.514;2022-07-17T15:13:58;9.57;;;3.80;;
52180;SDS011;38158;53.338;6.514;2022-07-17T15:16:24;5.53;;;2.73;;
52180;SDS011;38158;53.338;6.514;2022-07-17T15:18:50;6.40;;;2.63;;
52180;SDS011;38158;53.338;6.514;2022-07-17T15:21:16;6.33;;;3.57;;
52180;SDS011;38158;53.338;6.514;2022-07-17T15:23:41;5.53;;;2.47;;
52180;SDS011;38158;53.338;6.514;2022-07-17T15:26:07;6.50;;;2.80;;
52180;SDS011;38158;53.338;6.514;2022-07-17T15:28:33;7.15;;;3.75;;
52180;SDS011;38158;53.338;6.514;2022-07-17T15:30:59;9.80;;;5.67;;
52180;SDS011;38158;53.338;6.514;2022-07-17T15:33:25;5.80;;;2.73;;
52180;SDS011;38158;53.338;6.514;2022-07-17T15:35:51;3.73;;;2.37;;
52180;SDS011;38158;53.338;6.514;2022-07-17T15:38:16;5.37;;;2.83;;
52180;SDS011;38158;53.338;6.514;2022-07-17T15:40:42;7.13;;;2.80;;
52180;SDS011;38158;53.338;6.514;2022-07-17T15:43:08;5.47;;;2.53;;
52180;SDS011;38158;53.338;6.514;2022-07-17T15:45:33;4.70;;;2.27;;
52180;SDS011;38158;53.338;6.514;2022-07-17T15:47:59;5.20;;;2.33;;
52180;SDS011;38158;53.338;6.514;2022-07-17T15:50:25;4.63;;;1.97;;
52180;SDS011;38158;53.338;6.514;2022-07-17T15:52:51;7.63;;;2.63;;